Time;durP1;ratioP1;P1;durP2;ratioP2;P2;SDS_P1;SDS_P2;PMS_P1;PMS_P2;Temp;Humidity;BMP_temperature;BMP_pressure;BME280_temperature;BME280_humidity;BME280_pressure;Samples;Min_cycle;Max_cycle;Signal;HPM_P1;HPM_P2
2022/10/07 00:01:29;;;;;;;10.25;5.95;;;8.60;99.90;;;;;;5073015;28;20460;-55
2022/10/07 00:03:55;;;;;;;10.40;5.88;;;8.70;99.90;;;;;;5072716;28;20448;-54
2022/10/07 00:06:22;;;;;;;9.05;5.72;;;8.70;99.90;;;;;;5072771;28;20082;-52
2022/10/07 00:08:52;;;;;;;12.13;5.63;;;8.60;99.90;;;;;;5072753;28;20475;-53
2022/10/07 00:11:22;;;;;;;10.82;6.03;;;8.60;99.90;;;;;;5072380;28;20028;-52
2022/10/07 00:13:51;;;;;;;6.95;5.78;;;8.60;99.90;;;;;;5071868;28;20017;-55
2022/10/07 00:16:25;;;;;;;11.48;5.53;;;8.60;99.90;;;;;;5071537;28;20024;-51
2022/10/07 00:18:55;;;;;;;6.13;5.38;;;8.60;99.90;;;;;;5072072;28;20024;-54
2022/10/07 00:21:21;;;;;;;8.50;5.13;;;8.50;99.90;;;;;;5071707;28;20034;-52
2022/10/07 00:23:47;;;;;;;13.32;6.55;;;8.50;99.90;;;;;;5071842;28;20605;-55
2022/10/07 00:26:15;;;;;;;15.73;5.60;;;8.40;99.90;;;;;;5071530;28;20024;-54
2022/10/07 00:28:41;;;;;;;11.32;5.72;;;8.40;99.90;;;;;;5072319;28;20082;-54
2022/10/07 00:31:35;;;;;;;8.40;6.72;;;8.40;99.90;;;;;;5072224;28;20027;-54
2022/10/07 00:34:01;;;;;;;8.93;7.68;;;8.40;99.90;;;;;;5071828;28;20032;-51
2022/10/07 00:36:32;;;;;;;13.35;7.25;;;8.30;99.90;;;;;;5072010;28;20408;-55
2022/10/07 00:39:01;;;;;;;14.55;7.63;;;8.40;99.90;;;;;;5071719;28;20028;-54
2022/10/07 00:41:36;;;;;;;8.25;6.72;;;8.40;99.90;;;;;;5072092;28;20039;-52
2022/10/07 00:44:40;;;;;;;13.90;6.65;;;8.30;99.90;;;;;;5071806;28;20070;-54
2022/10/07 00:47:20;;;;;;;8.10;7.27;;;8.30;99.90;;;;;;5069165;28;20388;-53
2022/10/07 00:50:00;;;;;;;13.68;7.53;;;8.30;99.90;;;;;;5072035;28;20346;-54
2022/10/07 00:52:30;;;;;;;13.63;7.47;;;8.20;99.90;;;;;;5071937;28;20027;-52
2022/10/07 00:54:58;;;;;;;13.45;6.35;;;8.20;99.90;;;;;;5071860;28;20021;-53
2022/10/07 00:57:28;;;;;;;14.23;6.95;;;8.10;99.90;;;;;;5071871;28;20028;-53
2022/10/07 00:59:55;;;;;;;6.57;5.97;;;8.10;99.90;;;;;;5071743;28;20395;-53
2022/10/07 01:02:26;;;;;;;58.15;8.98;;;8.10;99.90;;;;;;5071740;28;20354;-54
2022/10/07 01:04:53;;;;;;;11.48;7.75;;;8.10;99.90;;;;;;5071702;28;20040;-52
2022/10/07 01:07:20;;;;;;;51.25;7.97;;;8.00;99.90;;;;;;5071611;28;20021;-53
2022/10/07 01:09:51;;;;;;;12.57;6.85;;;8.00;99.90;;;;;;5071702;28;20402;-53
2022/10/07 01:12:20;;;;;;;12.57;6.65;;;8.00;99.90;;;;;;5071723;28;20028;-51
2022/10/07 01:15:09;;;;;;;7.93;6.75;;;8.00;99.90;;;;;;5071752;28;20078;-54
2022/10/07 01:17:45;;;;;;;16.17;7.25;;;8.00;99.90;;;;;;5071626;28;20028;-53
2022/10/07 01:20:36;;;;;;;10.38;7.53;;;8.10;99.90;;;;;;5071512;28;20024;-51
2022/10/07 01:23:43;;;;;;;25.83;8.10;;;8.00;99.90;;;;;;5071434;28;20461;-53
2022/10/07 01:26:27;;;;;;;15.52;9.05;;;8.00;99.90;;;;;;5071311;28;20028;-54
2022/10/07 01:29:03;;;;;;;99.38;10.55;;;8.00;99.90;;;;;;5071425;28;20355;-53
2022/10/07 01:31:37;;;;;;;44.17;9.95;;;8.00;99.90;;;;;;5071386;28;20017;-52
2022/10/07 01:34:05;;;;;;;81.53;10.45;;;8.00;99.90;;;;;;5071401;28;20024;-53
2022/10/07 01:36:35;;;;;;;24.40;9.05;;;7.90;99.90;;;;;;5071469;28;20024;-51
2022/10/07 01:39:08;;;;;;;11.35;8.80;;;7.90;99.90;;;;;;5071439;28;20028;-53
2022/10/07 01:41:37;;;;;;;13.60;8.50;;;7.90;99.90;;;;;;5069991;28;20016;-52
2022/10/07 01:44:05;;;;;;;11.32;7.95;;;7.90;99.90;;;;;;5071355;28;20024;-52
2022/10/07 01:46:33;;;;;;;11.35;7.40;;;7.90;99.90;;;;;;5071824;28;20016;-51
2022/10/07 01:48:58;;;;;;;23.05;8.65;;;7.90;99.90;;;;;;5075566;28;20521;-54
2022/10/07 01:51:27;;;;;;;16.92;8.32;;;7.90;99.90;;;;;;5075315;28;20029;-52
2022/10/07 01:54:31;;;;;;;9.20;7.95;;;7.90;99.90;;;;;;5075382;28;20020;-53
2022/10/07 01:57:03;;;;;;;10.55;7.50;;;7.90;99.90;;;;;;5074418;28;20029;-52
2022/10/07 02:00:07;;;;;;;12.25;7.20;;;7.90;99.90;;;;;;5075286;28;20025;-51
2022/10/07 02:03:01;;;;;;;42.67;9.05;;;7.90;99.90;;;;;;5073870;28;20017;-51
2022/10/07 02:05:48;;;;;;;106.43;11.00;;;7.80;99.90;;;;;;5074410;28;20040;-50
2022/10/07 02:08:35;;;;;;;22.02;10.20;;;7.70;99.90;;;;;;5075062;28;20467;-52
2022/10/07 02:11:12;;;;;;;16.02;9.75;;;7.70;99.90;;;;;;5074900;28;20068;-52
2022/10/07 02:13:46;;;;;;;8.82;7.93;;;7.70;99.90;;;;;;5074951;28;20540;-55
2022/10/07 02:16:16;;;;;;;;;;;7.70;99.90;;;;;;5075346;28;20052;-50
2022/10/07 02:18:47;;;;;;;14.85;10.35;;;7.70;99.90;;;;;;5074849;28;20402;-53
2022/10/07 02:21:14;;;;;;;11.60;9.57;;;7.70;99.90;;;;;;5074671;28;20415;-52
2022/10/07 02:23:40;;;;;;;12.40;9.07;;;7.70;99.90;;;;;;5074757;28;20051;-55
2022/10/07 02:26:09;;;;;;;12.02;8.88;;;7.70;99.90;;;;;;5074763;28;20031;-50
2022/10/07 02:28:39;;;;;;;11.00;9.90;;;7.70;99.90;;;;;;5073380;28;20021;-52
2022/10/07 02:31:07;;;;;;;14.65;8.63;;;7.70;99.90;;;;;;5074737;28;20145;-52
2022/10/07 02:33:34;;;;;;;11.93;8.20;;;7.70;99.90;;;;;;5074572;28;20036;-51
2022/10/07 02:36:04;;;;;;;13.98;8.00;;;7.80;99.90;;;;;;5074390;28;20016;-52
2022/10/07 02:38:30;;;;;;;9.57;8.02;;;7.80;99.90;;;;;;5074586;28;20396;-52
2022/10/07 02:41:08;;;;;;;15.10;7.80;;;7.80;99.90;;;;;;5074404;28;20036;-51
2022/10/07 02:43:43;;;;;;;12.60;7.93;;;7.90;99.90;;;;;;5074316;28;20024;-51
2022/10/07 02:46:17;;;;;;;17.42;9.13;;;8.00;99.90;;;;;;5074259;28;20033;-52
2022/10/07 02:48:50;;;;;;;13.70;9.65;;;8.10;99.90;;;;;;5074300;28;20016;-54
2022/10/07 02:51:19;;;;;;;13.23;9.90;;;8.20;99.90;;;;;;5074274;28;20455;-52
2022/10/07 02:53:48;;;;;;;13.27;8.85;;;8.30;99.90;;;;;;5074155;28;20023;-54
2022/10/07 02:56:16;;;;;;;7.95;7.13;;;8.40;99.90;;;;;;5074333;28;20028;-54
2022/10/07 02:58:45;;;;;;;9.55;8.57;;;8.60;99.90;;;;;;5072695;28;20028;-52
2022/10/07 03:01:16;;;;;;;14.60;8.00;;;8.60;99.90;;;;;;5074287;28;20028;-53
2022/10/07 03:03:45;;;;;;;9.35;7.18;;;8.80;99.90;;;;;;5074084;28;20551;-52
2022/10/07 03:06:12;;;;;;;7.18;6.43;;;8.80;99.90;;;;;;5073899;28;20082;-51
2022/10/07 03:08:39;;;;;;;7.45;5.85;;;8.90;99.90;;;;;;5073701;28;20017;-52
2022/10/07 03:11:05;;;;;;;10.75;6.65;;;8.90;99.90;;;;;;5073811;28;20100;-55
2022/10/07 03:13:30;;;;;;;11.13;6.28;;;9.00;99.90;;;;;;5073865;28;20499;-52
2022/10/07 03:15:56;;;;;;;45.35;31.08;;;9.10;99.90;;;;;;5073818;28;20406;-53
2022/10/07 03:18:28;;;;;;;78.93;47.78;;;9.60;99.90;;;;;;5072581;28;20047;-51
2022/10/07 03:20:59;;;;;;;90.90;52.92;;;10.30;99.90;;;;;;5073627;28;20082;-52
2022/10/07 03:23:30;;;;;;;87.32;55.00;;;10.80;99.90;;;;;;5073759;28;20057;-54
2022/10/07 03:25:57;;;;;;;90.18;56.50;;;11.20;99.90;;;;;;5073362;28;20024;-54
2022/10/07 03:28:26;;;;;;;83.45;52.55;;;11.50;99.90;;;;;;5073733;28;20049;-52
2022/10/07 03:30:52;;;;;;;89.75;51.47;;;11.60;99.90;;;;;;5073631;28;20099;-52
2022/10/07 03:33:23;;;;;;;72.65;49.83;;;11.70;99.90;;;;;;5073515;28;20031;-53
2022/10/07 03:35:48;;;;;;;77.55;49.33;;;11.80;99.90;;;;;;5073620;28;20027;-56
2022/10/07 03:38:14;;;;;;;74.85;49.88;;;11.80;99.90;;;;;;5073312;28;20024;-52
2022/10/07 03:40:43;;;;;;;72.95;48.72;;;11.80;99.90;;;;;;5073470;28;20032;-53
2022/10/07 03:43:09;;;;;;;68.05;46.28;;;11.90;99.90;;;;;;5073174;28;20052;-53
2022/10/07 03:45:41;;;;;;;63.03;44.88;;;11.90;99.90;;;;;;5072829;28;20550;-51
2022/10/07 03:48:07;;;;;;;68.18;45.35;;;11.90;99.90;;;;;;5071759;28;20028;-52
2022/10/07 03:50:33;;;;;;;66.55;45.15;;;11.90;99.90;;;;;;5073162;28;20388;-52
2022/10/07 03:52:59;;;;;;;72.00;45.20;;;12.00;99.90;;;;;;5073092;28;20020;-52
2022/10/07 03:55:24;;;;;;;69.97;47.28;;;12.00;99.90;;;;;;5072945;28;20557;-56
2022/10/07 03:57:50;;;;;;;65.45;44.78;;;12.00;99.90;;;;;;5072990;28;20033;-55
2022/10/07 04:00:21;;;;;;;65.90;45.03;;;12.00;99.90;;;;;;5072904;28;20078;-55
2022/10/07 04:02:48;;;;;;;62.67;43.35;;;12.00;99.90;;;;;;5071686;28;20463;-55
2022/10/07 04:05:18;;;;;;;67.65;45.40;;;12.00;99.90;;;;;;5072757;28;20371;-54
2022/10/07 04:07:46;;;;;;;66.95;44.90;;;12.00;99.90;;;;;;5073007;28;20021;-52
2022/10/07 04:10:14;;;;;;;57.83;42.47;;;12.00;99.90;;;;;;5071951;28;20122;-54
2022/10/07 04:12:40;;;;;;;66.90;45.72;;;12.00;99.90;;;;;;5072949;28;20028;-52
2022/10/07 04:15:07;;;;;;;61.22;44.72;;;12.00;99.90;;;;;;5072553;28;20029;-53
2022/10/07 04:17:33;;;;;;;66.50;44.50;;;12.00;99.90;;;;;;5072810;28;20600;-54
2022/10/07 04:19:59;;;;;;;71.00;43.53;;;12.10;99.90;;;;;;5072325;28;20020;-52
2022/10/07 04:22:25;;;;;;;64.97;45.13;;;12.00;99.90;;;;;;5072690;28;20464;-55
2022/10/07 04:27:36;;;;;;;65.03;43.63;;;12.00;99.90;;;;;;5072541;28;20063;-53
2022/10/07 04:30:02;;;;;;;64.43;42.90;;;12.10;99.90;;;;;;5072258;28;20028;-52
2022/10/07 04:32:29;;;;;;;69.95;45.92;;;12.10;99.90;;;;;;5072346;28;20114;-55
2022/10/07 04:34:55;;;;;;;63.50;42.67;;;12.10;99.90;;;;;;5072272;28;20029;-53
2022/10/07 04:37:21;;;;;;;62.22;43.72;;;12.10;99.90;;;;;;5072213;28;20029;-54
2022/10/07 04:39:46;;;;;;;64.70;43.55;;;12.00;99.90;;;;;;5072332;28;20029;-55
2022/10/07 04:43:17;;;;;;;61.80;42.33;;;12.00;99.90;;;;;;5071953;28;20157;-54
2022/10/07 04:44:57;;;;;;;65.47;42.25;;;12.00;99.90;;;;;;5071633;28;20115;-51
2022/10/07 04:47:23;;;;;;;68.40;43.28;;;12.00;99.90;;;;;;5072074;28;20173;-53
2022/10/07 04:49:49;;;;;;;77.22;46.67;;;12.00;99.90;;;;;;5070759;28;20036;-54
2022/10/07 04:52:14;;;;;;;73.93;45.65;;;12.00;99.90;;;;;;5071841;28;20031;-54
2022/10/07 04:54:40;;;;;;;79.30;47.08;;;11.90;99.90;;;;;;5072002;28;20024;-52
2022/10/07 04:57:08;;;;;;;80.78;48.65;;;11.90;99.90;;;;;;5070291;28;20130;-55
2022/10/07 04:59:35;;;;;;;72.35;46.50;;;11.90;99.90;;;;;;5071934;28;20024;-52
2022/10/07 05:02:01;;;;;;;73.78;47.95;;;11.90;99.90;;;;;;5071591;28;20020;-53
2022/10/07 05:04:27;;;;;;;86.05;47.65;;;11.90;99.90;;;;;;5071665;28;20086;-52
2022/10/07 05:06:52;;;;;;;70.03;47.65;;;11.90;99.90;;;;;;5071762;28;20364;-52
2022/10/07 05:09:18;;;;;;;91.53;48.58;;;11.90;99.90;;;;;;5071604;28;20033;-53
2022/10/07 05:11:44;;;;;;;81.28;48.15;;;11.90;99.90;;;;;;5071912;28;20497;-53
2022/10/07 05:14:09;;;;;;;94.40;47.03;;;11.80;99.90;;;;;;5071255;28;20103;-51
2022/10/07 05:16:35;;;;;;;97.28;48.83;;;11.80;99.90;;;;;;5071781;28;20452;-53
2022/10/07 05:19:01;;;;;;;85.22;47.35;;;11.80;99.90;;;;;;5071464;28;20403;-52
2022/10/07 05:21:26;;;;;;;75.75;48.42;;;11.80;99.90;;;;;;5070843;28;20585;-51
2022/10/07 05:23:52;;;;;;;90.20;49.65;;;11.80;99.90;;;;;;5070129;28;20027;-54
2022/10/07 05:26:17;;;;;;;100.25;50.75;;;11.80;99.90;;;;;;5071162;28;20086;-52
2022/10/07 05:28:45;;;;;;;94.85;51.25;;;11.70;99.90;;;;;;5070662;28;20036;-51
2022/10/07 05:31:13;;;;;;;91.85;53.22;;;11.80;99.90;;;;;;5070387;28;20023;-55
2022/10/07 05:33:39;;;;;;;101.82;50.58;;;11.80;99.90;;;;;;5071077;28;20017;-52
2022/10/07 05:36:07;;;;;;;101.60;50.25;;;11.80;99.90;;;;;;5070373;28;20392;-55
2022/10/07 05:38:33;;;;;;;116.35;50.30;;;11.80;99.90;;;;;;5070611;28;20028;-53
2022/10/07 05:41:01;;;;;;;81.38;49.97;;;11.80;99.90;;;;;;5070594;28;20077;-53
2022/10/07 05:43:28;;;;;;;90.95;48.30;;;11.80;99.90;;;;;;5070761;28;20029;-55
2022/10/07 05:46:05;;;;;;;111.20;49.10;;;11.80;99.90;;;;;;5071160;28;20031;-56
2022/10/07 05:48:32;;;;;;;115.65;48.50;;;11.80;99.90;;;;;;5071423;28;20025;-56
2022/10/07 05:50:59;;;;;;;99.50;46.65;;;11.80;99.90;;;;;;5071035;28;20021;-53
2022/10/07 05:53:26;;;;;;;85.97;44.63;;;11.90;99.90;;;;;;5071189;28;20020;-57
2022/10/07 05:55:52;;;;;;;101.05;47.55;;;11.90;99.90;;;;;;5071218;28;20021;-53
2022/10/07 05:58:18;;;;;;;78.47;45.33;;;11.90;99.90;;;;;;5071147;28;20042;-53
2022/10/07 06:00:58;;;;;;;75.78;43.38;;;11.90;99.90;;;;;;5071287;28;20365;-55
2022/10/07 06:03:25;;;;;;;77.97;43.03;;;11.90;99.90;;;;;;5071099;28;20040;-54
2022/10/07 06:05:51;;;;;;;102.47;43.85;;;11.90;99.90;;;;;;5071030;28;20043;-52
2022/10/07 06:08:18;;;;;;;143.73;47.10;;;11.90;99.90;;;;;;5071003;28;20048;-53
2022/10/07 06:13:31;;;;;;;69.95;39.45;;;11.80;99.90;;;;;;5071126;28;20062;-54
2022/10/07 06:16:01;;;;;;;113.35;42.30;;;11.90;99.90;;;;;;5071084;28;20025;-52
2022/10/07 06:18:28;;;;;;;207.05;44.35;;;11.90;99.90;;;;;;5070938;28;20044;-56
2022/10/07 06:20:55;;;;;;;264.80;46.97;;;11.90;99.90;;;;;;5070774;28;20391;-52
2022/10/07 06:23:22;;;;;;;116.40;42.67;;;11.90;99.90;;;;;;5069887;28;20526;-53
2022/10/07 06:25:55;;;;;;;206.10;43.05;;;11.90;99.90;;;;;;5071036;28;20032;-53
2022/10/07 06:28:21;;;;;;;156.95;42.55;;;11.90;99.90;;;;;;5070930;28;20452;-53
2022/10/07 06:30:47;;;;;;;159.60;45.38;;;11.90;99.90;;;;;;5069662;28;20039;-52
2022/10/07 06:33:13;;;;;;;124.18;43.13;;;11.90;99.90;;;;;;5072231;28;20021;-56
2022/10/07 06:35:39;;;;;;;120.15;41.88;;;11.90;99.90;;;;;;5074632;28;20021;-54
2022/10/07 06:38:05;;;;;;;165.15;41.13;;;11.90;99.90;;;;;;5074230;28;20039;-51
2022/10/07 06:40:31;;;;;;;123.60;38.78;;;11.90;99.90;;;;;;5074415;28;20032;-55
2022/10/07 06:42:56;;;;;;;127.82;39.65;;;11.90;99.90;;;;;;5074357;28;20021;-52
2022/10/07 06:45:22;;;;;;;145.52;40.85;;;11.90;99.90;;;;;;5074441;28;20474;-53
2022/10/07 06:47:48;;;;;;;158.30;36.40;;;11.90;99.90;;;;;;5072931;28;20077;-51
2022/10/07 06:50:14;;;;;;;85.07;37.60;;;11.90;99.90;;;;;;5074221;28;20029;-51
2022/10/07 06:52:40;;;;;;;135.95;39.65;;;11.90;99.90;;;;;;5074083;28;20060;-53
2022/10/07 06:55:06;;;;;;;116.97;36.92;;;11.90;99.90;;;;;;5073882;28;20028;-52
2022/10/07 06:57:32;;;;;;;99.13;37.65;;;12.00;99.90;;;;;;5073915;28;20404;-55
2022/10/07 06:59:59;;;;;;;109.65;36.38;;;11.90;99.90;;;;;;5074190;28;20035;-56
2022/10/07 07:02:26;;;;;;;72.53;35.30;;;12.00;99.90;;;;;;5074005;28;20017;-52
2022/10/07 07:04:53;;;;;;;98.03;38.20;;;12.00;99.90;;;;;;5073686;28;20043;-51
2022/10/07 07:07:20;;;;;;;85.47;35.80;;;12.00;99.90;;;;;;5073944;28;20480;-52
2022/10/07 07:09:46;;;;;;;68.38;32.00;;;12.10;99.90;;;;;;5073604;28;20455;-52
2022/10/07 07:12:12;;;;;;;78.43;33.75;;;12.10;99.90;;;;;;5074022;28;20154;-51
2022/10/07 07:14:37;;;;;;;78.80;34.28;;;12.10;99.90;;;;;;5074050;28;20078;-52
2022/10/07 07:17:03;;;;;;;97.95;33.63;;;12.10;99.90;;;;;;5073557;28;20028;-53
2022/10/07 07:19:29;;;;;;;72.88;34.47;;;12.10;99.90;;;;;;5073663;28;20032;-52
2022/10/07 07:21:54;;;;;;;100.65;32.30;;;12.10;99.90;;;;;;5073694;28;20027;-52
2022/10/07 07:24:20;;;;;;;88.28;36.35;;;12.20;99.90;;;;;;5073668;28;20013;-52
2022/10/07 07:26:47;;;;;;;97.57;32.58;;;12.20;99.90;;;;;;5073537;28;20052;-51
2022/10/07 07:29:13;;;;;;;70.32;32.80;;;12.20;99.90;;;;;;5073360;28;20103;-51
2022/10/07 07:31:39;;;;;;;76.05;31.98;;;12.20;99.90;;;;;;5073512;28;20074;-55
2022/10/07 07:34:10;;;;;;;49.08;31.85;;;12.20;99.90;;;;;;5073535;28;20024;-52
2022/10/07 07:36:37;;;;;;;46.58;31.27;;;12.20;99.90;;;;;;5073579;28;20353;-53
2022/10/07 07:39:07;;;;;;;50.13;32.55;;;12.30;99.90;;;;;;5073302;28;20460;-52
2022/10/07 07:41:35;;;;;;;42.47;29.88;;;12.40;99.90;;;;;;5072041;28;20495;-52
2022/10/07 07:44:03;;;;;;;45.90;28.38;;;12.40;99.90;;;;;;5072458;28;20492;-51
2022/10/07 07:46:35;;;;;;;49.55;29.20;;;12.40;99.90;;;;;;5072681;28;20042;-55
2022/10/07 07:49:01;;;;;;;45.88;30.20;;;12.40;99.90;;;;;;5073198;28;20464;-54
2022/10/07 07:51:27;;;;;;;43.30;28.33;;;12.50;99.90;;;;;;5073305;28;20027;-52
2022/10/07 07:53:53;;;;;;;42.38;29.67;;;12.40;99.90;;;;;;5071459;28;20025;-51
2022/10/07 07:56:19;;;;;;;35.33;26.42;;;12.50;99.90;;;;;;5073168;28;20115;-52
2022/10/07 07:58:45;;;;;;;49.05;26.52;;;12.60;99.90;;;;;;5073191;28;20055;-53
2022/10/07 08:01:13;;;;;;;60.30;44.63;;;12.60;99.90;;;;;;5073011;28;20029;-51
2022/10/07 08:03:42;;;;;;;51.55;38.08;;;12.50;99.90;;;;;;5072901;28;20031;-54
2022/10/07 08:06:09;;;;;;;57.97;40.13;;;12.50;99.90;;;;;;5072610;28;20040;-51
2022/10/07 08:08:35;;;;;;;42.15;28.50;;;12.60;99.90;;;;;;5065291;28;20025;-68
2022/10/07 08:11:08;;;;;;;47.10;33.10;;;12.60;99.90;;;;;;5052541;28;20028;-51
2022/10/07 08:13:35;;;;;;;40.83;26.17;;;12.60;99.90;;;;;;5052840;28;20411;-51
2022/10/07 08:16:03;;;;;;;42.97;26.55;;;12.60;99.90;;;;;;5052164;28;20029;-50
2022/10/07 08:18:30;;;;;;;39.63;25.95;;;12.60;99.90;;;;;;5052579;28;20021;-50
2022/10/07 08:21:01;;;;;;;36.78;25.67;;;12.70;99.90;;;;;;5052510;28;20364;-51
2022/10/07 08:23:29;;;;;;;43.85;27.45;;;12.70;99.90;;;;;;5052431;28;20025;-52
2022/10/07 08:25:58;;;;;;;40.85;28.80;;;12.70;99.90;;;;;;5050887;28;20025;-50
2022/10/07 08:28:26;;;;;;;48.88;28.20;;;12.70;99.90;;;;;;5051049;28;20084;-54
2022/10/07 08:30:52;;;;;;;43.58;31.95;;;12.70;99.90;;;;;;5052150;28;20097;-51
2022/10/07 08:33:19;;;;;;;38.88;27.92;;;12.80;99.90;;;;;;5052217;28;20025;-54
2022/10/07 08:35:58;;;;;;;33.80;25.13;;;12.80;99.90;;;;;;5052520;28;20021;-52
2022/10/07 08:38:24;;;;;;;37.35;27.02;;;12.80;99.90;;;;;;5052072;28;20033;-51
2022/10/07 08:40:52;;;;;;;35.85;26.10;;;12.80;99.90;;;;;;5052246;28;20024;-51
2022/10/07 08:43:22;;;;;;;38.10;26.20;;;12.70;99.90;;;;;;5050699;28;20116;-52
2022/10/07 08:45:49;;;;;;;35.90;24.60;;;12.70;99.90;;;;;;5052098;28;20025;-52
2022/10/07 08:48:21;;;;;;;34.90;24.55;;;12.80;99.90;;;;;;5051994;28;20021;-52
2022/10/07 08:51:18;;;;;;;33.10;21.80;;;12.90;99.90;;;;;;5051788;28;20029;-51
2022/10/07 08:53:52;;;;;;;33.22;22.42;;;13.00;99.90;;;;;;5051911;28;20013;-51
2022/10/07 08:56:22;;;;;;;27.05;22.45;;;13.10;99.90;;;;;;5051932;28;20028;-55
2022/10/07 08:59:12;;;;;;;33.00;23.13;;;13.20;99.90;;;;;;5051830;28;20497;-51
2022/10/07 09:02:03;;;;;;;31.52;23.20;;;13.30;99.90;;;;;;5051676;28;20021;-52
2022/10/07 09:04:59;;;;;;;41.20;24.70;;;13.40;99.90;;;;;;5051759;28;20052;-50
2022/10/07 09:07:35;;;;;;;34.25;24.45;;;13.30;99.90;;;;;;5050199;28;20021;-52
2022/10/07 09:10:17;;;;;;;33.35;24.23;;;13.30;99.90;;;;;;5051601;28;20041;-54
2022/10/07 09:13:11;;;;;;;37.15;24.13;;;13.30;99.90;;;;;;5051762;28;20349;-51
2022/10/07 09:16:10;;;;;;;40.30;24.73;;;13.40;99.90;;;;;;5050492;28;20013;-50
2022/10/07 09:18:40;;;;;;;47.60;25.90;;;13.30;99.90;;;;;;5050122;28;20029;-50
2022/10/07 09:21:21;;;;;;;40.00;26.50;;;13.40;99.90;;;;;;5050382;28;20056;-52
2022/10/07 09:23:51;;;;;;;33.65;24.77;;;13.30;99.90;;;;;;5050142;28;20021;-52
2022/10/07 09:26:17;;;;;;;34.35;24.08;;;13.40;99.90;;;;;;5050334;28;20425;-51
2022/10/07 09:28:44;;;;;;;35.17;25.45;;;13.40;99.90;;;;;;5050118;28;20048;-51
2022/10/07 09:31:13;;;;;;;38.05;26.15;;;13.40;99.90;;;;;;5049920;28;20090;-51
2022/10/07 09:33:43;;;;;;;40.10;25.52;;;13.40;99.90;;;;;;5050203;28;20017;-52
2022/10/07 09:36:12;;;;;;;40.45;27.73;;;13.30;99.90;;;;;;5050048;28;20029;-52
2022/10/07 09:38:43;;;;;;;34.80;25.73;;;13.20;99.90;;;;;;5068639;28;20032;-51
2022/10/07 09:41:30;;;;;;;36.42;25.88;;;13.40;99.90;;;;;;5070034;28;20054;-52
2022/10/07 09:44:20;;;;;;;40.78;27.40;;;13.50;99.90;;;;;;5069962;28;20031;-51
2022/10/07 09:46:52;;;;;;;43.45;27.52;;;13.50;99.90;;;;;;5069988;28;20045;-50
2022/10/07 09:49:43;;;;;;;41.65;27.98;;;13.50;99.90;;;;;;5057455;28;20033;-53
2022/10/07 09:52:30;;;;;;;43.10;28.45;;;13.50;99.90;;;;;;5043455;28;20240;-53
2022/10/07 09:55:16;;;;;;;37.28;25.25;;;13.50;99.90;;;;;;5037756;28;20035;-52
2022/10/07 09:57:41;;;;;;;30.67;23.05;;;13.60;99.90;;;;;;5038856;28;20487;-54
2022/10/07 10:00:21;;;;;;;32.40;23.88;;;13.70;99.90;;;;;;5038376;28;20044;-52
2022/10/07 10:02:54;;;;;;;31.58;22.88;;;13.70;99.90;;;;;;5045755;28;20136;-51
2022/10/07 10:05:28;;;;;;;33.70;22.45;;;13.80;99.90;;;;;;5057805;28;20021;-54
2022/10/07 10:08:00;;;;;;;35.60;23.80;;;13.80;99.90;;;;;;5039461;28;20017;-54
2022/10/07 10:10:32;;;;;;;33.47;23.15;;;13.70;99.90;;;;;;5041696;28;20045;-54
2022/10/07 10:13:00;;;;;;;31.92;24.67;;;13.80;99.90;;;;;;5045845;28;20029;-53
2022/10/07 10:15:34;;;;;;;35.42;23.55;;;13.80;99.90;;;;;;5043191;28;20068;-54
2022/10/07 10:18:01;;;;;;;35.58;23.48;;;13.90;99.90;;;;;;5063437;28;20028;-54
2022/10/07 10:20:38;;;;;;;36.45;23.70;;;14.00;99.90;;;;;;5063859;28;20035;-52
2022/10/07 10:23:25;;;;;;;30.13;23.73;;;14.10;99.90;;;;;;5063525;28;20039;-52
2022/10/07 10:28:48;;;;;;;33.95;25.15;;;14.10;99.90;;;;;;5052660;28;20139;-55
2022/10/07 10:31:32;;;;;;;37.13;24.02;;;14.10;99.90;;;;;;5062826;28;20040;-56
2022/10/07 10:34:12;;;;;;;40.28;26.77;;;14.50;99.90;;;;;;5063305;28;20119;-52
2022/10/07 10:36:44;;;;;;;28.73;21.63;;;14.40;99.90;;;;;;5045105;28;20048;-53
2022/10/07 10:39:32;;;;;;;31.17;20.17;;;14.60;99.90;;;;;;5043703;28;20033;-51
2022/10/07 10:42:04;;;;;;;34.42;22.80;;;14.90;99.90;;;;;;5043518;28;20368;-51
2022/10/07 10:44:54;;;;;;;28.85;21.42;;;14.70;99.90;;;;;;5043840;28;20404;-52
2022/10/07 10:47:59;;;;;;;30.50;22.38;;;14.80;99.90;;;;;;5042118;28;20020;-50
2022/10/07 10:50:52;;;;;;;29.88;23.08;;;14.80;99.90;;;;;;5045460;28;20033;-50
2022/10/07 10:53:56;;;;;;;30.92;19.80;;;15.00;99.90;;;;;;5042904;28;20119;-54
2022/10/07 10:56:41;;;;;;;26.20;20.23;;;15.60;99.90;;;;;;5054628;28;20040;-54
2022/10/07 10:59:09;;;;;;;28.77;20.40;;;15.60;99.90;;;;;;5062869;28;20032;-51
2022/10/07 11:01:41;;;;;;;28.85;21.23;;;15.70;99.90;;;;;;5063282;28;20037;-52
2022/10/07 11:04:48;;;;;;;33.08;20.55;;;15.90;99.90;;;;;;5043316;28;20091;-51
2022/10/07 11:07:26;;;;;;;30.38;22.30;;;16.10;99.90;;;;;;5046263;28;20463;-52
2022/10/07 11:10:00;;;;;;;28.35;21.55;;;15.70;99.90;;;;;;5042741;28;20053;-52
2022/10/07 11:12:37;;;;;;;35.03;21.80;;;15.90;99.90;;;;;;5042548;28;20105;-54
2022/10/07 11:15:27;;;;;;;30.73;22.30;;;15.80;99.90;;;;;;5043181;28;20113;-53
2022/10/07 11:17:58;;;;;;;26.92;19.58;;;15.90;99.90;;;;;;5043056;28;20037;-51
2022/10/07 11:20:30;;;;;;;33.00;20.73;;;16.20;99.90;;;;;;5042158;28;20071;-54
2022/10/07 11:23:15;;;;;;;30.58;19.58;;;16.40;99.90;;;;;;5042735;28;20051;-53
2022/10/07 11:25:47;;;;;;;26.08;20.42;;;16.60;99.90;;;;;;5043079;28;20025;-51
2022/10/07 11:28:20;;;;;;;22.65;18.58;;;16.60;99.90;;;;;;5042766;28;20025;-51
2022/10/07 11:31:16;;;;;;;20.75;17.55;;;16.50;99.90;;;;;;5043208;28;20513;-55
2022/10/07 11:34:14;;;;;;;26.15;16.35;;;16.80;99.90;;;;;;5061604;28;20033;-52
2022/10/07 11:36:51;;;;;;;23.17;17.05;;;17.60;99.90;;;;;;5050871;28;20123;-51
2022/10/07 11:39:17;;;;;;;22.20;17.90;;;18.00;99.90;;;;;;5042953;28;20051;-52
2022/10/07 11:42:03;;;;;;;24.70;16.65;;;18.20;99.90;;;;;;5042938;28;20506;-52
2022/10/07 11:44:48;;;;;;;23.33;16.73;;;18.40;99.90;;;;;;5042718;28;20045;-53
2022/10/07 11:47:19;;;;;;;23.73;17.10;;;18.10;99.90;;;;;;5041247;28;20116;-51
2022/10/07 11:49:56;;;;;;;21.75;17.35;;;18.40;99.90;;;;;;5040278;28;20405;-51
2022/10/07 11:52:29;;;;;;;26.88;17.90;;;18.30;99.90;;;;;;5040358;28;20314;-54
2022/10/07 11:55:03;;;;;;;28.25;18.23;;;18.40;99.90;;;;;;5041164;28;20388;-52
2022/10/07 11:57:34;;;;;;;23.27;18.13;;;18.00;99.90;;;;;;5040810;28;20025;-54
2022/10/07 12:00:26;;;;;;;27.80;16.55;;;17.90;99.90;;;;;;5041001;28;20377;-51
2022/10/07 12:02:53;;;;;;;23.85;16.90;;;18.80;99.90;;;;;;5039026;28;20080;-53
2022/10/07 12:05:48;;;;;;;20.73;15.55;;;19.60;99.90;;;;;;5039916;28;20036;-53
2022/10/07 12:08:27;;;;;;;24.65;16.20;;;20.50;99.90;;;;;;5040261;28;20598;-52
2022/10/07 12:11:13;;;;;;;20.63;13.65;;;21.70;98.60;;;;;;5040196;28;20041;-54
2022/10/07 12:13:42;;;;;;;18.05;13.13;;;22.60;96.80;;;;;;5039885;28;20483;-53
2022/10/07 12:16:23;;;;;;;16.77;13.60;;;24.80;93.30;;;;;;5042919;28;20024;-51
2022/10/07 12:19:06;;;;;;;20.15;12.93;;;26.40;86.80;;;;;;5040822;28;20036;-52
2022/10/07 12:22:03;;;;;;;15.75;12.30;;;27.20;78.80;;;;;;5042012;28;20037;-52
2022/10/07 12:24:34;;;;;;;24.90;12.02;;;26.60;79.90;;;;;;5040392;28;20037;-54
2022/10/07 12:27:25;;;;;;;13.35;10.45;;;26.10;79.00;;;;;;5040858;28;20029;-53
2022/10/07 12:30:01;;;;;;;15.25;13.15;;;28.90;74.20;;;;;;5041654;28;20025;-52
2022/10/07 12:32:51;;;;;;;19.05;12.23;;;28.10;70.70;;;;;;5041537;28;20119;-54
2022/10/07 12:35:39;;;;;;;13.95;11.15;;;27.50;72.90;;;;;;5041615;28;21256;-54
2022/10/07 12:38:16;;;;;;;19.15;12.65;;;27.80;72.00;;;;;;5041472;28;20112;-56
2022/10/07 12:40:53;;;;;;;16.05;12.25;;;27.30;70.90;;;;;;5041299;28;20399;-52
2022/10/07 12:43:25;;;;;;;15.00;10.45;;;27.50;70.80;;;;;;5042576;28;20033;-52
2022/10/07 12:45:52;;;;;;;20.88;11.40;;;27.40;72.00;;;;;;5039993;28;20076;-55
2022/10/07 12:48:20;;;;;;;18.90;11.65;;;27.60;72.20;;;;;;5041063;28;20921;-56
2022/10/07 12:50:49;;;;;;;25.70;12.65;;;27.70;70.90;;;;;;5041761;28;20028;-53
2022/10/07 12:53:16;;;;;;;22.85;17.63;;;26.60;71.20;;;;;;5041262;28;20029;-51
2022/10/07 12:55:47;;;;;;;21.73;14.18;;;25.80;71.80;;;;;;5041666;28;20051;-51
2022/10/07 13:01:56;;;;;;;22.00;17.98;;;23.80;78.10;;;;;;5041224;28;20563;-52
2022/10/07 13:04:51;;;;;;;23.02;14.68;;;23.30;81.00;;;;;;5041126;28;20036;-52
2022/10/07 13:07:51;;;;;;;22.67;14.15;;;23.80;82.50;;;;;;5046969;28;20472;-52
2022/10/07 13:10:50;;;;;;;24.92;13.82;;;23.70;79.50;;;;;;5042674;28;20045;-52